createdAt,value
2023-10-06T00:00:10.787Z,4.40
2023-10-06T00:01:56.952Z,4.10
2023-10-06T00:02:32.142Z,4.50
2023-10-06T00:03:07.391Z,4.40
2023-10-06T00:03:42.958Z,4.80
2023-10-06T00:04:17.682Z,4.60
2023-10-06T00:05:37.645Z,4.80
2023-10-06T00:06:15.444Z,4.50
2023-10-06T00:06:50.557Z,4.70
2023-10-06T00:07:26.049Z,4.30
2023-10-06T00:08:00.523Z,4.60
2023-10-06T00:09:29.977Z,4.40
2023-10-06T00:10:05.206Z,4.50
2023-10-06T00:10:46.239Z,4.70
2023-10-06T00:11:33.266Z,4.70
2023-10-06T00:13:05.418Z,4.50
2023-10-06T00:13:39.419Z,4.50
2023-10-06T00:14:33.105Z,4.40
2023-10-06T00:15:10.921Z,4.80
2023-10-06T00:15:45.479Z,4.30
2023-10-06T00:17:13.204Z,4.60
2023-10-06T00:17:50.753Z,5.10
2023-10-06T00:18:24.997Z,4.90
2023-10-06T00:19:03.059Z,4.70
2023-10-06T00:21:08.512Z,4.50
2023-10-06T00:21:47.255Z,4.70
2023-10-06T00:22:20.920Z,5.30
2023-10-06T00:23:03.952Z,5.10
2023-10-06T00:24:27.607Z,4.60
2023-10-06T00:25:03.751Z,4.50
2023-10-06T00:25:38.359Z,5.00
2023-10-06T00:26:20.515Z,5.00
2023-10-06T00:28:17.006Z,4.90
2023-10-06T00:28:51.495Z,4.60
2023-10-06T00:29:25.876Z,4.90
2023-10-06T00:30:00.342Z,4.90
2023-10-06T00:30:34.209Z,4.60
2023-10-06T00:32:20.538Z,4.90
2023-10-06T00:32:56.473Z,4.50
2023-10-06T00:33:38.914Z,4.90
2023-10-06T00:34:13.324Z,4.80
2023-10-06T00:34:47.228Z,4.80
2023-10-06T00:36:17.980Z,4.40
2023-10-06T00:36:53.434Z,4.20
2023-10-06T00:37:27.370Z,4.60
2023-10-06T00:38:12.142Z,4.50
2023-10-06T00:40:12.372Z,4.70
2023-10-06T00:41:29.903Z,4.00
2023-10-06T00:42:06.271Z,4.10
2023-10-06T00:43:52.769Z,4.60
2023-10-06T00:44:27.580Z,4.70
2023-10-06T00:45:02.858Z,4.50
2023-10-06T00:45:40.828Z,4.90
2023-10-06T00:47:23.882Z,4.30
2023-10-06T00:47:58.505Z,4.70
2023-10-06T00:48:34.061Z,4.60
2023-10-06T00:49:09.381Z,4.90
2023-10-06T00:49:44.933Z,5.00
2023-10-06T00:51:23.634Z,4.40
2023-10-06T00:52:00.488Z,4.20
2023-10-06T00:52:35.458Z,4.80
2023-10-06T00:53:12.184Z,5.00
2023-10-06T00:54:51.578Z,4.50
2023-10-06T00:55:27.424Z,4.70
2023-10-06T00:56:12.278Z,4.90
2023-10-06T00:56:46.624Z,4.70
2023-10-06T00:57:21.763Z,4.40
2023-10-06T00:58:42.727Z,4.30
2023-10-06T00:59:18.450Z,4.80
2023-10-06T00:59:54.078Z,4.40
2023-10-06T01:00:30.959Z,4.60
2023-10-06T01:01:09.130Z,5.10
2023-10-06T01:02:26.373Z,5.10
2023-10-06T01:03:00.339Z,5.10
2023-10-06T01:03:40.478Z,4.70
2023-10-06T01:04:18.123Z,5.10
2023-10-06T01:04:54.389Z,4.50
2023-10-06T01:06:19.110Z,5.00
2023-10-06T01:06:56.189Z,5.40
2023-10-06T01:07:29.976Z,4.80
2023-10-06T01:08:07.107Z,5.20
2023-10-06T01:08:49.859Z,5.10
2023-10-06T01:10:18.771Z,4.60
2023-10-06T01:11:08.191Z,4.70
2023-10-06T01:11:51.963Z,4.60
2023-10-06T01:12:26.587Z,5.20
2023-10-06T01:13:57.704Z,5.20
2023-10-06T01:14:35.652Z,5.20
2023-10-06T01:15:20.468Z,4.70
2023-10-06T01:15:57.874Z,4.60
2023-10-06T01:17:56.412Z,4.90
2023-10-06T01:18:36.571Z,5.00
2023-10-06T01:19:18.561Z,5.10
2023-10-06T01:19:54.845Z,5.30
2023-10-06T01:21:26.670Z,5.00
2023-10-06T01:22:15.253Z,4.70
2023-10-06T01:22:57.898Z,4.80
2023-10-06T01:23:35.227Z,5.10
2023-10-06T01:25:06.235Z,5.10
2023-10-06T01:25:41.211Z,4.60
2023-10-06T01:26:14.921Z,5.00
2023-10-06T01:26:50.602Z,5.10
2023-10-06T01:28:39.369Z,5.30
2023-10-06T01:29:15.039Z,4.90
2023-10-06T01:29:53.315Z,5.00
2023-10-06T01:30:27.723Z,5.20
2023-10-06T01:32:17.450Z,4.70
2023-10-06T01:32:53.190Z,5.30
2023-10-06T01:33:26.813Z,4.70
2023-10-06T01:34:01.044Z,4.80
2023-10-06T01:34:40.921Z,5.00
2023-10-06T01:36:15.435Z,5.00
2023-10-06T01:36:55.186Z,5.00
2023-10-06T01:37:29.803Z,4.80
2023-10-06T01:38:07.115Z,5.60
2023-10-06T01:39:54.104Z,4.80
2023-10-06T01:40:29.086Z,5.00
2023-10-06T01:41:04.264Z,4.80
2023-10-06T01:41:38.825Z,4.30
2023-10-06T01:43:26.956Z,4.60
2023-10-06T01:44:01.219Z,4.60
2023-10-06T01:44:38.852Z,4.80
2023-10-06T01:45:16.379Z,5.10
2023-10-06T01:45:53.489Z,4.90
2023-10-06T01:47:13.288Z,4.80
2023-10-06T01:47:48.081Z,5.40
2023-10-06T01:48:22.280Z,5.40
2023-10-06T01:48:56.434Z,5.10
2023-10-06T01:49:30.430Z,5.10
2023-10-06T01:50:51.648Z,4.70
2023-10-06T01:51:25.785Z,4.90
2023-10-06T01:52:08.852Z,4.40
2023-10-06T01:52:43.900Z,4.80
2023-10-06T01:53:20.566Z,4.80
2023-10-06T01:54:38.416Z,4.20
2023-10-06T01:55:23.077Z,4.50
2023-10-06T01:55:57.556Z,4.60
2023-10-06T01:56:32.643Z,4.80
2023-10-06T01:57:12.776Z,4.70
2023-10-06T01:58:30.198Z,4.70
2023-10-06T01:59:06.893Z,4.80
2023-10-06T01:59:41.144Z,5.30
2023-10-06T02:00:16.911Z,5.10
2023-10-06T02:13:41.408Z,5.00
2023-10-06T02:14:19.357Z,4.90
2023-10-06T02:14:53.563Z,4.70
2023-10-06T02:16:32.354Z,4.70
2023-10-06T02:17:10.479Z,4.30
2023-10-06T02:17:44.729Z,5.00
2023-10-06T02:18:18.902Z,4.30
2023-10-06T02:20:13.752Z,4.70
2023-10-06T02:20:47.894Z,4.50
2023-10-06T02:21:26.005Z,4.70
2023-10-06T02:21:59.811Z,4.10
2023-10-06T02:22:33.611Z,4.80
2023-10-06T02:23:54.273Z,4.60
2023-10-06T02:24:28.230Z,4.80
2023-10-06T02:25:14.457Z,4.70
2023-10-06T02:25:48.267Z,4.60
2023-10-06T02:26:22.140Z,5.00
2023-10-06T02:27:48.951Z,4.80
2023-10-06T02:28:22.549Z,4.50
2023-10-06T02:28:57.538Z,4.60
2023-10-06T02:29:32.753Z,4.90
2023-10-06T02:30:11.878Z,4.90
2023-10-06T02:31:31.083Z,4.30
2023-10-06T02:32:09.352Z,4.70
2023-10-06T02:32:47.208Z,4.50
2023-10-06T02:33:21.558Z,4.70
2023-10-06T02:35:13.924Z,4.80
2023-10-06T02:35:48.399Z,4.70
2023-10-06T02:36:26.279Z,4.40
2023-10-06T02:37:03.366Z,5.40
2023-10-06T02:38:48.301Z,4.80
2023-10-06T02:39:22.599Z,4.90
2023-10-06T02:39:56.848Z,4.90
2023-10-06T02:40:39.355Z,5.00
2023-10-06T02:41:13.633Z,4.80
2023-10-06T02:42:35.563Z,4.30
2023-10-06T02:43:11.208Z,4.50
2023-10-06T02:43:45.252Z,4.70
2023-10-06T02:44:24.457Z,4.70
2023-10-06T02:46:17.297Z,4.80
2023-10-06T02:46:57.230Z,4.80
2023-10-06T02:47:30.925Z,5.00
2023-10-06T02:48:16.638Z,5.10
2023-10-06T02:49:50.581Z,5.30
2023-10-06T02:50:25.416Z,5.20
2023-10-06T02:50:59.070Z,5.30
2023-10-06T02:51:41.920Z,5.40
2023-10-06T02:52:22.509Z,5.30
2023-10-06T02:53:50.074Z,4.70
2023-10-06T02:54:29.367Z,4.80
2023-10-06T02:55:06.052Z,5.00
2023-10-06T02:55:40.332Z,4.90
2023-10-06T02:57:22.205Z,4.50
2023-10-06T02:57:57.570Z,4.40
2023-10-06T02:59:21.881Z,4.10
2023-10-06T03:01:05.303Z,4.30
2023-10-06T03:01:40.549Z,4.20
2023-10-06T03:02:17.657Z,4.60
2023-10-06T03:03:12.602Z,4.60
2023-10-06T03:04:50.784Z,4.90
2023-10-06T03:05:35.296Z,4.80
2023-10-06T03:06:11.469Z,4.60
2023-10-06T03:06:54.977Z,5.10
2023-10-06T03:08:31.591Z,4.40
2023-10-06T03:09:08.860Z,4.20
2023-10-06T03:09:48.571Z,4.00
2023-10-06T03:10:29.230Z,4.20
2023-10-06T03:11:03.264Z,4.00
2023-10-06T03:12:28.140Z,4.50
2023-10-06T03:13:05.117Z,4.60
2023-10-06T03:13:44.907Z,4.50
2023-10-06T03:14:26.104Z,4.80
2023-10-06T03:15:00.305Z,4.40
2023-10-06T03:16:27.115Z,4.40
2023-10-06T03:17:00.928Z,4.20
2023-10-06T03:17:35.764Z,4.60
2023-10-06T03:18:09.970Z,4.80
2023-10-06T03:20:13.148Z,4.70
2023-10-06T03:20:48.859Z,4.70
2023-10-06T03:21:24.297Z,4.90
2023-10-06T03:22:00.523Z,5.00
2023-10-06T03:23:59.896Z,4.10
2023-10-06T03:24:34.488Z,5.10
2023-10-06T03:25:16.074Z,5.00
2023-10-06T03:25:50.945Z,4.90
2023-10-06T03:27:27.248Z,4.20
2023-10-06T03:28:04.221Z,4.80
2023-10-06T03:28:38.968Z,4.60
2023-10-06T03:29:26.398Z,4.70
2023-10-06T03:31:31.365Z,4.00
2023-10-06T03:32:13.101Z,3.70
2023-10-06T03:32:51.180Z,4.10
2023-10-06T03:33:24.816Z,4.20
2023-10-06T03:34:45.065Z,3.90
2023-10-06T03:35:25.142Z,4.30
2023-10-06T03:36:00.675Z,4.10
2023-10-06T03:36:48.020Z,5.20
2023-10-06T03:38:38.004Z,4.20
2023-10-06T03:39:13.817Z,4.40
2023-10-06T03:39:52.323Z,4.40
2023-10-06T03:40:31.641Z,4.70
2023-10-06T03:42:12.868Z,4.70
2023-10-06T03:42:47.422Z,4.50
2023-10-06T03:43:40.221Z,4.50
2023-10-06T03:44:13.838Z,4.60
2023-10-06T03:45:07.708Z,4.30
2023-10-06T03:46:25.775Z,4.30
2023-10-06T03:47:02.318Z,5.30
2023-10-06T03:47:36.946Z,4.30
2023-10-06T03:48:12.752Z,6.00
2023-10-06T03:48:50.799Z,4.50
2023-10-06T03:50:09.813Z,4.30
2023-10-06T03:50:45.626Z,4.70
2023-10-06T03:51:20.561Z,4.60
2023-10-06T03:51:57.445Z,4.50
2023-10-06T03:52:31.920Z,4.70
2023-10-06T03:53:51.126Z,4.70
2023-10-06T03:54:25.402Z,5.00
2023-10-06T03:55:00.000Z,4.90
2023-10-06T03:55:33.640Z,4.60
2023-10-06T03:56:08.095Z,5.40
2023-10-06T03:57:28.735Z,4.90
2023-10-06T03:58:05.012Z,4.90
2023-10-06T03:58:38.864Z,5.30
2023-10-06T03:59:17.301Z,5.60
2023-10-06T03:59:51.214Z,5.20
2023-10-06T04:01:14.863Z,5.20
2023-10-06T04:01:48.442Z,5.50
2023-10-06T04:02:23.334Z,5.20
2023-10-06T04:02:58.505Z,4.70
2023-10-06T04:03:33.985Z,5.10
2023-10-06T04:04:58.910Z,4.60
2023-10-06T04:05:38.834Z,5.20
2023-10-06T04:06:16.836Z,4.90
2023-10-06T04:06:51.709Z,4.90
2023-10-06T04:08:32.529Z,5.50
2023-10-06T04:09:06.921Z,5.30
2023-10-06T04:09:43.089Z,5.20
2023-10-06T04:10:18.157Z,5.80
2023-10-06T04:10:56.428Z,5.20
2023-10-06T04:12:12.890Z,5.60
2023-10-06T04:12:46.401Z,5.50
2023-10-06T04:13:21.943Z,6.10
2023-10-06T04:13:58.660Z,5.60
2023-10-06T04:14:35.280Z,6.00
2023-10-06T04:15:54.052Z,5.50
2023-10-06T04:16:27.709Z,6.10
2023-10-06T04:17:02.938Z,6.20
2023-10-06T04:17:38.008Z,5.90
2023-10-06T04:18:12.300Z,6.10
2023-10-06T04:19:35.800Z,5.80
2023-10-06T04:20:14.441Z,5.50
2023-10-06T04:20:48.407Z,6.00
2023-10-06T04:21:22.098Z,5.90
2023-10-06T04:21:55.731Z,6.20
2023-10-06T04:23:18.476Z,5.80
2023-10-06T04:23:51.968Z,5.80
2023-10-06T04:24:25.564Z,5.90
2023-10-06T04:25:01.162Z,6.20
2023-10-06T04:25:39.703Z,6.00
2023-10-06T04:26:59.293Z,5.60
2023-10-06T04:27:34.424Z,5.80
2023-10-06T04:28:12.970Z,5.40
2023-10-06T04:28:48.738Z,5.30
2023-10-06T04:29:25.174Z,5.80
2023-10-06T04:30:48.538Z,5.20
2023-10-06T04:31:23.305Z,5.60
2023-10-06T04:31:57.570Z,5.40
2023-10-06T04:32:31.212Z,5.80
2023-10-06T04:33:06.169Z,5.50
2023-10-06T04:34:24.268Z,6.00
2023-10-06T04:34:58.890Z,5.70
2023-10-06T04:35:34.138Z,5.90
2023-10-06T04:36:11.446Z,5.90
2023-10-06T04:36:45.190Z,6.20
2023-10-06T04:38:07.545Z,5.50
2023-10-06T04:38:42.057Z,5.80
2023-10-06T04:39:18.092Z,6.10
2023-10-06T04:39:51.560Z,6.80
2023-10-06T04:40:25.284Z,6.40
2023-10-06T04:41:46.042Z,5.80
2023-10-06T04:42:20.282Z,6.60
2023-10-06T04:42:53.652Z,6.50
2023-10-06T04:43:28.535Z,6.40
2023-10-06T04:44:04.226Z,6.00
2023-10-06T04:45:33.449Z,6.20
2023-10-06T04:46:06.940Z,6.20
2023-10-06T04:46:41.476Z,6.00
2023-10-06T04:47:17.471Z,6.00
2023-10-06T04:47:51.314Z,5.90
2023-10-06T04:49:09.187Z,5.40
2023-10-06T04:49:43.258Z,5.90
2023-10-06T04:50:17.578Z,6.30
2023-10-06T04:50:53.388Z,5.90
2023-10-06T04:51:28.630Z,6.10
2023-10-06T04:52:48.577Z,5.80
2023-10-06T04:53:24.073Z,6.00
2023-10-06T04:53:57.520Z,5.90
2023-10-06T04:54:34.443Z,5.50
2023-10-06T04:55:13.377Z,5.70
2023-10-06T04:56:33.918Z,5.50
2023-10-06T04:57:09.922Z,5.50
2023-10-06T04:57:44.334Z,5.80
2023-10-06T04:58:20.409Z,6.10
2023-10-06T04:58:55.413Z,5.70
2023-10-06T05:00:22.755Z,5.50
2023-10-06T05:01:00.997Z,5.30
2023-10-06T05:01:35.730Z,5.30
2023-10-06T05:02:09.715Z,5.70
2023-10-06T05:02:47.930Z,5.30
2023-10-06T05:04:07.320Z,4.20
2023-10-06T05:04:41.574Z,5.00
2023-10-06T05:05:20.638Z,5.40
2023-10-06T05:05:57.178Z,5.60
2023-10-06T05:06:30.769Z,5.70
2023-10-06T05:07:50.400Z,5.90
2023-10-06T05:08:26.232Z,5.50
2023-10-06T05:08:59.894Z,5.70
2023-10-06T05:09:33.538Z,5.50
2023-10-06T05:10:12.832Z,5.30
2023-10-06T05:11:34.214Z,5.40
2023-10-06T05:12:08.662Z,6.00
2023-10-06T05:12:45.071Z,5.80
2023-10-06T05:13:19.493Z,5.40
2023-10-06T05:13:55.058Z,5.60
2023-10-06T05:15:25.250Z,5.50
2023-10-06T05:15:58.999Z,5.50
2023-10-06T05:16:34.822Z,5.80
2023-10-06T05:17:08.553Z,5.60
2023-10-06T05:17:42.909Z,5.60
2023-10-06T05:19:05.364Z,5.30
2023-10-06T05:19:39.136Z,5.30
2023-10-06T05:20:20.919Z,5.80
2023-10-06T05:20:54.823Z,5.90
2023-10-06T05:21:29.751Z,5.50
2023-10-06T05:22:50.372Z,5.10
2023-10-06T05:23:24.433Z,5.30
2023-10-06T05:24:00.979Z,5.70
2023-10-06T05:24:34.695Z,5.40
2023-10-06T05:25:14.002Z,5.70
2023-10-06T05:26:37.872Z,5.40
2023-10-06T05:27:11.700Z,5.30
2023-10-06T05:27:45.916Z,5.70
2023-10-06T05:28:22.530Z,5.70
2023-10-06T05:28:55.841Z,5.30
2023-10-06T05:30:15.195Z,5.20
2023-10-06T05:30:49.300Z,5.00
2023-10-06T05:31:24.256Z,4.90
2023-10-06T05:32:01.281Z,5.00
2023-10-06T05:32:43.898Z,5.00
2023-10-06T05:34:02.315Z,5.10
2023-10-06T05:34:35.703Z,6.00
2023-10-06T05:35:11.794Z,5.90
2023-10-06T05:35:47.139Z,6.20
2023-10-06T05:36:21.565Z,5.70
2023-10-06T05:37:39.702Z,6.20
2023-10-06T05:38:16.145Z,6.00
2023-10-06T05:38:50.994Z,6.20
2023-10-06T05:39:25.788Z,6.20
2023-10-06T05:40:00.153Z,5.60
2023-10-06T05:41:19.496Z,4.40
2023-10-06T05:41:53.278Z,5.40
2023-10-06T05:42:27.718Z,6.20
2023-10-06T05:43:02.285Z,5.60
2023-10-06T05:43:36.506Z,5.80
2023-10-06T05:45:01.103Z,6.30
2023-10-06T05:45:34.369Z,5.90
2023-10-06T05:46:07.861Z,6.00
2023-10-06T05:46:43.377Z,6.40
2023-10-06T05:47:17.089Z,5.70
2023-10-06T05:48:45.115Z,6.00
2023-10-06T05:49:22.528Z,5.60
2023-10-06T05:49:56.087Z,5.80
2023-10-06T05:50:32.846Z,6.10
2023-10-06T05:52:19.344Z,6.10
2023-10-06T05:52:53.601Z,6.70
2023-10-06T05:53:31.756Z,6.40
2023-10-06T05:54:10.880Z,6.70
2023-10-06T05:54:44.536Z,6.50
2023-10-06T05:56:09.225Z,6.20
2023-10-06T05:56:46.605Z,6.00
2023-10-06T05:57:23.183Z,5.80
2023-10-06T05:57:57.470Z,6.00
2023-10-06T05:59:44.714Z,5.60
2023-10-06T06:00:26.630Z,5.20
2023-10-06T06:01:07.741Z,5.70
2023-10-06T06:01:42.926Z,5.60
2023-10-06T06:03:25.295Z,6.40
2023-10-06T06:03:59.445Z,5.50
2023-10-06T06:04:35.922Z,5.40
2023-10-06T06:05:09.844Z,5.20
2023-10-06T06:05:43.663Z,5.20
2023-10-06T06:07:10.097Z,5.10
2023-10-06T06:07:45.697Z,5.40
2023-10-06T06:08:19.889Z,5.30
2023-10-06T06:08:53.568Z,5.60
2023-10-06T06:09:28.823Z,5.80
2023-10-06T06:10:51.243Z,6.30
2023-10-06T06:11:26.156Z,6.20
2023-10-06T06:11:59.886Z,6.20
2023-10-06T06:12:33.662Z,6.30
2023-10-06T06:13:09.414Z,5.60
2023-10-06T06:14:50.944Z,5.20
2023-10-06T06:15:28.044Z,5.90
2023-10-06T06:16:06.946Z,5.70
2023-10-06T06:16:46.011Z,5.60
2023-10-06T06:18:10.676Z,5.10
2023-10-06T06:18:47.667Z,5.20
2023-10-06T06:19:23.566Z,6.00
2023-10-06T06:20:04.732Z,5.70
2023-10-06T06:21:51.890Z,5.90
2023-10-06T06:22:25.898Z,5.40
2023-10-06T06:23:04.055Z,5.50
2023-10-06T06:23:37.772Z,5.50
2023-10-06T06:24:11.396Z,5.40
2023-10-06T06:25:31.765Z,5.70
2023-10-06T06:26:07.815Z,5.90
2023-10-06T06:26:44.905Z,5.90
2023-10-06T06:27:18.149Z,6.30
2023-10-06T06:27:51.946Z,5.80
2023-10-06T06:29:13.132Z,6.00
2023-10-06T06:29:47.766Z,5.90
2023-10-06T06:30:22.676Z,6.20
2023-10-06T06:30:56.524Z,6.50
2023-10-06T06:31:34.564Z,6.50
2023-10-06T06:32:54.382Z,6.00
2023-10-06T06:33:28.115Z,6.40
2023-10-06T06:34:06.377Z,6.60
2023-10-06T06:34:40.267Z,6.70
2023-10-06T06:35:15.232Z,7.00
2023-10-06T06:36:34.143Z,6.20
2023-10-06T06:37:10.875Z,6.00
2023-10-06T06:37:44.488Z,6.60
2023-10-06T06:38:20.264Z,6.80
2023-10-06T06:38:56.965Z,6.60
2023-10-06T06:40:14.813Z,6.20
2023-10-06T06:40:49.577Z,6.50
2023-10-06T06:41:23.466Z,6.10
2023-10-06T06:41:57.240Z,6.30
2023-10-06T06:42:31.495Z,6.10
2023-10-06T06:43:59.814Z,5.90
2023-10-06T06:44:36.201Z,6.20
2023-10-06T06:45:15.024Z,6.00
2023-10-06T06:45:49.875Z,5.40
2023-10-06T06:46:23.769Z,5.60
2023-10-06T06:47:45.959Z,6.10
2023-10-06T06:48:21.619Z,5.20
2023-10-06T06:48:59.490Z,5.20
2023-10-06T06:49:33.874Z,5.70
2023-10-06T06:50:09.019Z,5.40
2023-10-06T06:51:32.787Z,5.00
2023-10-06T06:52:08.631Z,4.90
2023-10-06T06:52:46.005Z,4.60
2023-10-06T06:53:20.167Z,4.90
2023-10-06T06:53:54.726Z,5.30
2023-10-06T06:55:15.937Z,5.10
2023-10-06T06:55:49.742Z,5.60
2023-10-06T06:56:30.966Z,5.80
2023-10-06T06:57:05.028Z,4.70
2023-10-06T06:57:38.579Z,5.10
2023-10-06T06:58:58.346Z,4.40
2023-10-06T06:59:32.561Z,4.20
2023-10-06T07:00:11.355Z,4.00
2023-10-06T07:00:47.788Z,3.90
2023-10-06T07:01:22.658Z,4.20
2023-10-06T07:02:40.015Z,4.20
2023-10-06T07:03:13.724Z,4.50
2023-10-06T07:03:47.305Z,4.00
2023-10-06T07:04:20.970Z,4.10
2023-10-06T07:04:54.967Z,4.20
2023-10-06T07:06:18.803Z,4.00
2023-10-06T07:06:54.365Z,4.00
2023-10-06T07:07:28.065Z,3.90
2023-10-06T07:08:02.707Z,4.10
2023-10-06T07:08:35.959Z,3.90
2023-10-06T07:09:58.381Z,3.80
2023-10-06T07:10:32.604Z,4.00
2023-10-06T07:11:09.661Z,3.80
2023-10-06T07:11:43.963Z,3.90
2023-10-06T07:12:17.533Z,3.50
2023-10-06T07:13:38.977Z,3.90
2023-10-06T07:14:15.810Z,3.80
2023-10-06T07:14:49.591Z,3.50
2023-10-06T07:15:23.399Z,3.80
2023-10-06T07:15:57.104Z,3.60
2023-10-06T07:17:18.541Z,3.40
2023-10-06T07:17:55.501Z,3.50
2023-10-06T07:18:29.645Z,3.40
2023-10-06T07:19:05.197Z,4.00
2023-10-06T07:19:39.563Z,4.00
2023-10-06T07:21:13.576Z,3.40
2023-10-06T07:21:47.388Z,3.50
2023-10-06T07:22:23.746Z,3.60
2023-10-06T07:23:02.046Z,3.40
2023-10-06T07:24:42.732Z,3.30
2023-10-06T07:25:17.897Z,3.30
2023-10-06T07:25:52.431Z,3.20
2023-10-06T07:26:26.412Z,3.20
2023-10-06T07:27:00.377Z,3.40
2023-10-06T07:28:23.162Z,3.10
2023-10-06T07:28:58.506Z,3.20
2023-10-06T07:29:32.519Z,3.10
2023-10-06T07:30:12.472Z,3.50
2023-10-06T07:30:46.771Z,3.30
2023-10-06T07:32:04.635Z,3.40
2023-10-06T07:32:44.890Z,3.60
2023-10-06T07:33:19.179Z,3.60
2023-10-06T07:33:53.848Z,3.50
2023-10-06T07:34:27.707Z,3.50
2023-10-06T07:35:53.213Z,3.70
2023-10-06T07:36:29.454Z,3.10
2023-10-06T07:37:03.639Z,3.20
2023-10-06T07:37:38.150Z,3.60
2023-10-06T07:38:15.763Z,3.50
2023-10-06T07:39:33.244Z,3.70
2023-10-06T07:40:14.648Z,3.20
2023-10-06T07:40:49.311Z,3.70
2023-10-06T07:41:28.744Z,3.50
2023-10-06T07:42:08.905Z,3.60
2023-10-06T07:43:28.873Z,3.60
2023-10-06T07:44:02.590Z,3.80
2023-10-06T07:44:36.247Z,3.50
2023-10-06T07:45:10.924Z,3.80
2023-10-06T07:45:45.334Z,4.10
2023-10-06T07:47:05.611Z,3.40
2023-10-06T07:47:42.020Z,3.50
2023-10-06T07:48:15.769Z,3.80
2023-10-06T07:48:52.391Z,3.80
2023-10-06T07:49:26.834Z,3.90
2023-10-06T07:50:50.694Z,3.50
2023-10-06T07:51:25.582Z,4.10
2023-10-06T07:51:59.418Z,3.50
2023-10-06T07:52:34.385Z,3.30
2023-10-06T07:53:08.011Z,3.90
2023-10-06T07:54:30.199Z,3.50
2023-10-06T07:55:11.379Z,3.70
2023-10-06T07:55:45.438Z,3.80
2023-10-06T07:56:20.464Z,3.70
2023-10-06T07:58:09.821Z,3.80
2023-10-06T07:58:43.529Z,3.60
2023-10-06T07:59:17.735Z,3.50
2023-10-06T07:59:51.966Z,3.70
2023-10-06T08:00:29.437Z,3.30
2023-10-06T08:01:50.671Z,3.50
2023-10-06T08:02:24.867Z,3.40
2023-10-06T08:03:03.318Z,3.80
2023-10-06T08:03:39.762Z,3.50
2023-10-06T08:04:13.897Z,3.60
2023-10-06T08:05:33.304Z,3.10
2023-10-06T08:06:07.713Z,3.10
2023-10-06T08:06:41.790Z,3.10
2023-10-06T08:07:15.889Z,3.10
2023-10-06T08:07:49.587Z,3.00
2023-10-06T08:09:12.824Z,2.90
2023-10-06T08:09:46.335Z,2.80
2023-10-06T08:10:20.483Z,3.50
2023-10-06T08:10:58.614Z,3.00
2023-10-06T08:11:34.111Z,3.20
2023-10-06T08:12:58.093Z,3.20
2023-10-06T08:13:37.922Z,3.00
2023-10-06T08:14:14.922Z,3.40
2023-10-06T08:14:48.681Z,3.00
2023-10-06T08:15:28.925Z,3.10
2023-10-06T08:16:47.227Z,3.00
2023-10-06T08:17:20.858Z,3.80
2023-10-06T08:17:55.371Z,3.20
2023-10-06T08:18:31.235Z,2.90
2023-10-06T08:19:05.291Z,3.10
2023-10-06T08:20:27.070Z,3.20
2023-10-06T08:21:04.804Z,3.10
2023-10-06T08:21:38.570Z,3.30
2023-10-06T08:22:12.179Z,3.30
2023-10-06T08:22:50.684Z,3.60
2023-10-06T08:24:09.024Z,3.50
2023-10-06T08:24:44.701Z,3.00
2023-10-06T08:25:19.985Z,3.10
2023-10-06T08:26:01.405Z,3.10
2023-10-06T08:26:38.473Z,3.40
2023-10-06T08:27:57.227Z,3.00
2023-10-06T08:28:33.406Z,3.30
2023-10-06T08:29:08.118Z,3.20
2023-10-06T08:29:43.284Z,3.50
2023-10-06T08:30:18.566Z,2.90
2023-10-06T08:31:43.959Z,3.30
2023-10-06T08:32:18.673Z,3.10
2023-10-06T08:32:54.968Z,3.10
2023-10-06T08:33:29.671Z,3.30
2023-10-06T08:35:14.997Z,3.10
2023-10-06T08:35:56.728Z,3.20
2023-10-06T08:36:30.809Z,3.50
2023-10-06T08:37:12.410Z,3.00
2023-10-06T08:37:51.566Z,3.00
2023-10-06T08:39:09.322Z,3.00
2023-10-06T08:39:43.754Z,2.80
2023-10-06T08:40:19.080Z,3.10
2023-10-06T08:40:58.092Z,3.30
2023-10-06T08:41:38.164Z,2.90
2023-10-06T08:47:28.261Z,3.20
2023-10-06T08:49:01.324Z,3.50
2023-10-06T08:50:45.309Z,3.40
2023-10-06T08:51:24.195Z,3.60
2023-10-06T08:52:00.425Z,3.20
2023-10-06T08:52:38.484Z,3.20
2023-10-06T08:53:14.690Z,3.60
2023-10-06T08:54:32.803Z,3.30
2023-10-06T08:55:07.910Z,3.60
2023-10-06T08:55:42.176Z,3.80
2023-10-06T08:56:16.937Z,3.70
2023-10-06T08:56:50.604Z,3.50
2023-10-06T08:58:16.227Z,3.80
2023-10-06T08:58:50.905Z,3.50
2023-10-06T08:59:25.450Z,3.60
2023-10-06T08:59:59.351Z,3.80
2023-10-06T09:00:36.864Z,3.60
2023-10-06T09:01:56.302Z,3.60
2023-10-06T09:02:31.757Z,3.90
2023-10-06T09:03:09.743Z,3.70
2023-10-06T09:03:44.044Z,3.80
2023-10-06T09:04:17.902Z,3.50
2023-10-06T09:05:43.501Z,3.30
2023-10-06T09:06:17.203Z,3.80
2023-10-06T09:07:10.535Z,3.90
2023-10-06T09:08:08.783Z,3.90
2023-10-06T09:09:38.323Z,3.80
2023-10-06T09:10:18.963Z,3.60
2023-10-06T09:10:56.063Z,3.70
2023-10-06T09:11:42.775Z,3.20
2023-10-06T09:13:35.960Z,3.50
2023-10-06T09:14:10.280Z,3.50
2023-10-06T09:14:58.749Z,3.70
2023-10-06T09:15:33.435Z,3.80
2023-10-06T09:17:34.522Z,3.80
2023-10-06T09:18:21.902Z,3.70
2023-10-06T09:19:06.583Z,3.50
2023-10-06T09:19:50.792Z,3.80
2023-10-06T09:21:17.706Z,3.60
2023-10-06T09:22:06.974Z,3.30
2023-10-06T09:22:49.183Z,3.30
2023-10-06T09:23:35.866Z,3.50
2023-10-06T09:25:11.236Z,3.60
2023-10-06T09:25:48.682Z,3.30
2023-10-06T09:26:31.326Z,3.60
2023-10-06T09:27:21.224Z,3.70
2023-10-06T09:29:03.104Z,3.70
2023-10-06T09:29:37.933Z,3.30
2023-10-06T09:30:18.289Z,3.30
2023-10-06T09:30:59.378Z,3.30
2023-10-06T09:31:38.234Z,4.00
2023-10-06T09:33:04.229Z,3.50
2023-10-06T09:33:39.310Z,3.50
2023-10-06T09:34:13.776Z,3.50
2023-10-06T09:34:50.772Z,3.70
2023-10-06T09:36:48.023Z,3.70
2023-10-06T09:37:22.338Z,3.60
2023-10-06T09:38:11.604Z,3.50
2023-10-06T09:38:47.392Z,3.10
2023-10-06T09:40:43.253Z,3.30
2023-10-06T09:41:26.771Z,3.30
2023-10-06T09:42:07.468Z,3.40
2023-10-06T09:42:44.864Z,3.30
2023-10-06T09:44:14.126Z,3.30
2023-10-06T09:44:53.298Z,3.60
2023-10-06T09:45:32.241Z,3.60
2023-10-06T09:46:18.106Z,3.10
2023-10-06T09:48:06.872Z,3.40
2023-10-06T09:48:44.648Z,3.30
2023-10-06T09:49:20.058Z,3.20
2023-10-06T09:49:55.102Z,3.10
2023-10-06T09:51:42.997Z,3.00
2023-10-06T09:52:22.523Z,3.40
2023-10-06T09:53:01.764Z,3.10
2023-10-06T09:53:40.373Z,3.30
2023-10-06T09:55:23.061Z,3.20
2023-10-06T09:55:57.899Z,3.50
2023-10-06T09:56:35.370Z,3.60
2023-10-06T09:57:11.716Z,3.50
2023-10-06T09:59:01.426Z,3.40
2023-10-06T09:59:36.166Z,3.20
2023-10-06T10:00:17.647Z,2.80
2023-10-06T10:00:51.879Z,3.30
2023-10-06T10:03:18.442Z,3.00
2023-10-06T10:03:55.872Z,3.10
2023-10-06T10:04:30.957Z,2.90
2023-10-06T10:06:15.786Z,3.30
2023-10-06T10:06:51.892Z,3.30
2023-10-06T10:07:25.744Z,3.60
2023-10-06T10:08:01.043Z,3.60
2023-10-06T10:08:43.233Z,3.50
2023-10-06T10:10:07.606Z,3.50
2023-10-06T10:10:47.588Z,3.70
2023-10-06T10:11:30.591Z,3.40
2023-10-06T10:12:39.417Z,3.40
2023-10-06T10:14:32.504Z,3.00
2023-10-06T10:15:42.190Z,3.40
2023-10-06T10:16:48.242Z,3.20
2023-10-06T10:18:48.801Z,3.00
2023-10-06T10:19:25.051Z,2.90
2023-10-06T10:20:01.238Z,3.20
2023-10-06T10:20:38.235Z,3.20
2023-10-06T10:22:19.971Z,3.70
2023-10-06T10:23:03.262Z,3.70
2023-10-06T10:23:41.888Z,3.40
2023-10-06T10:25:01.284Z,3.40
2023-10-06T10:26:18.118Z,3.40
2023-10-06T10:26:52.177Z,3.30
2023-10-06T10:27:26.412Z,3.30
2023-10-06T10:28:28.928Z,3.50
2023-10-06T10:30:09.310Z,3.80
2023-10-06T10:31:15.266Z,3.50
2023-10-06T10:32:01.540Z,3.40
2023-10-06T10:33:42.821Z,3.40
2023-10-06T10:34:26.863Z,3.80
2023-10-06T10:35:17.124Z,3.80
2023-10-06T10:36:19.361Z,3.40
2023-10-06T10:38:05.825Z,3.30
2023-10-06T10:38:40.806Z,4.00
2023-10-06T10:39:20.457Z,3.60
2023-10-06T10:39:54.520Z,3.50
2023-10-06T10:41:42.546Z,3.80
2023-10-06T10:42:23.291Z,3.60
2023-10-06T10:43:06.814Z,3.40
2023-10-06T10:43:42.953Z,3.40
2023-10-06T10:45:39.866Z,3.50
2023-10-06T10:46:16.662Z,3.80
2023-10-06T10:46:54.445Z,4.10
2023-10-06T10:47:29.063Z,4.00
2023-10-06T10:49:24.477Z,4.20
2023-10-06T10:49:59.188Z,5.00
2023-10-06T10:51:12.676Z,5.10
2023-10-06T10:51:59.131Z,6.40
2023-10-06T10:53:31.207Z,4.90
2023-10-06T10:54:06.559Z,4.20
2023-10-06T10:54:41.710Z,4.00
2023-10-06T10:55:24.067Z,4.20
2023-10-06T10:56:00.622Z,4.30
2023-10-06T10:57:23.262Z,4.90
2023-10-06T10:57:57.698Z,5.10
2023-10-06T10:58:46.137Z,5.70
2023-10-06T10:59:22.186Z,5.50
2023-10-06T11:00:14.499Z,5.70
2023-10-06T11:01:55.727Z,5.80
2023-10-06T11:03:01.836Z,4.40
2023-10-06T11:03:36.622Z,4.00
2023-10-06T11:04:31.036Z,4.40
2023-10-06T11:05:47.099Z,4.80
2023-10-06T11:06:21.872Z,4.30
2023-10-06T11:06:57.733Z,4.90
2023-10-06T11:07:31.490Z,4.80
2023-10-06T11:08:07.184Z,4.50
2023-10-06T11:09:30.992Z,4.90
2023-10-06T11:10:05.436Z,4.10
2023-10-06T11:10:39.848Z,4.40
2023-10-06T11:11:14.271Z,3.70
2023-10-06T11:11:47.737Z,4.20
2023-10-06T11:13:20.717Z,5.50
2023-10-06T11:14:03.394Z,5.60